createdAt,value
2018-10-19T00:00:23.879Z,11.74
2018-10-19T00:02:53.337Z,11.61
2018-10-19T00:05:22.545Z,11.70
2018-10-19T00:07:55.626Z,11.75
2018-10-19T00:10:24.841Z,11.77
2018-10-19T00:12:54.147Z,11.84
2018-10-19T00:15:23.343Z,11.84
2018-10-19T00:17:52.888Z,11.72
2018-10-19T00:20:22.110Z,11.74
2018-10-19T00:22:51.308Z,11.71
2018-10-19T00:25:20.627Z,11.65
2018-10-19T00:27:49.985Z,11.61
2018-10-19T00:30:19.594Z,11.58
2018-10-19T00:32:48.836Z,11.57
2018-10-19T00:35:19.023Z,11.55
2018-10-19T00:37:48.216Z,11.51
2018-10-19T00:40:18.804Z,11.51
2018-10-19T00:42:48.023Z,11.65
2018-10-19T00:45:17.811Z,11.51
2018-10-19T00:47:47.341Z,11.54
2018-10-19T00:50:17.942Z,11.50
2018-10-19T00:52:47.139Z,11.57
2018-10-19T00:55:17.162Z,11.54
2018-10-19T00:57:47.254Z,11.57
2018-10-19T01:00:18.387Z,11.67
2018-10-19T01:02:47.596Z,11.63
2018-10-19T01:05:18.010Z,11.62
2018-10-19T01:07:47.271Z,11.62
2018-10-19T01:10:21.124Z,11.61
2018-10-19T01:12:50.651Z,11.54
2018-10-19T01:15:19.967Z,11.56
2018-10-19T01:17:49.356Z,11.71
2018-10-19T01:20:18.824Z,11.75
2018-10-19T01:22:48.042Z,11.70
2018-10-19T01:25:19.280Z,11.65
2018-10-19T01:27:48.527Z,11.61
2018-10-19T01:30:18.254Z,11.61
2018-10-19T01:32:47.477Z,11.54
2018-10-19T01:35:17.487Z,11.48
2018-10-19T01:37:46.667Z,11.53
2018-10-19T01:40:16.547Z,11.44
2018-10-19T01:42:45.764Z,11.48
2018-10-19T01:45:16.009Z,11.45
2018-10-19T01:47:45.294Z,11.51
2018-10-19T01:50:16.443Z,11.44
2018-10-19T01:52:45.696Z,11.41
2018-10-19T01:55:15.286Z,11.33
2018-10-19T01:57:44.499Z,11.43
2018-10-19T02:00:15.201Z,11.39
2018-10-19T02:02:44.513Z,11.58
2018-10-19T02:05:15.273Z,11.58
2018-10-19T02:07:44.567Z,11.59
2018-10-19T02:10:15.385Z,11.48
2018-10-19T02:12:44.606Z,11.42
2018-10-19T02:15:15.705Z,11.34
2018-10-19T02:17:44.920Z,11.28
2018-10-19T02:20:14.159Z,11.28
2018-10-19T02:22:43.369Z,11.21
2018-10-19T02:25:12.963Z,11.27
2018-10-19T02:27:42.158Z,11.35
2018-10-19T02:30:12.108Z,11.46
2018-10-19T02:32:41.358Z,11.49
2018-10-19T02:35:10.740Z,11.62
2018-10-19T02:37:39.956Z,11.59
2018-10-19T02:40:09.764Z,11.59
2018-10-19T02:42:39.149Z,11.71
2018-10-19T02:45:09.366Z,11.79
2018-10-19T02:47:38.586Z,11.71
2018-10-19T02:50:08.445Z,11.69
2018-10-19T02:52:38.171Z,11.75
2018-10-19T02:55:08.134Z,11.91
2018-10-19T02:57:37.340Z,11.88
2018-10-19T03:00:10.105Z,11.90
2018-10-19T03:02:39.500Z,11.84
2018-10-19T03:05:15.004Z,11.89
2018-10-19T03:07:44.191Z,11.81
2018-10-19T03:10:13.800Z,11.94
2018-10-19T03:12:42.963Z,11.83
2018-10-19T03:15:12.800Z,11.95
2018-10-19T03:17:41.971Z,11.93
2018-10-19T03:20:11.223Z,11.91
2018-10-19T03:22:40.426Z,11.87
2018-10-19T03:25:10.247Z,11.90
2018-10-19T03:27:39.423Z,11.99
2018-10-19T03:30:09.580Z,12.09
2018-10-19T03:32:38.773Z,12.22
2018-10-19T03:35:08.159Z,12.16
2018-10-19T03:37:37.291Z,12.12
2018-10-19T03:40:06.528Z,12.14
2018-10-19T03:42:35.711Z,12.18
2018-10-19T03:45:05.153Z,12.11
2018-10-19T03:47:34.289Z,12.33
2018-10-19T03:50:03.639Z,12.36
2018-10-19T03:52:32.835Z,12.39
2018-10-19T03:55:04.875Z,12.35
2018-10-19T03:57:34.067Z,12.23
2018-10-19T04:00:03.476Z,12.25
2018-10-19T04:02:32.675Z,12.21
2018-10-19T04:05:02.025Z,12.19
2018-10-19T04:07:31.152Z,12.16
2018-10-19T04:10:00.367Z,12.18
2018-10-19T04:12:29.600Z,12.14
2018-10-19T04:14:58.825Z,12.22
2018-10-19T04:17:28.054Z,12.19
2018-10-19T04:19:57.299Z,12.04
2018-10-19T04:22:26.630Z,12.11
2018-10-19T04:24:55.872Z,12.08
2018-10-19T04:27:25.114Z,11.95
2018-10-19T04:29:54.247Z,11.93
2018-10-19T04:32:23.517Z,11.84
2018-10-19T04:34:52.828Z,11.78
2018-10-19T04:37:21.992Z,11.90
2018-10-19T04:39:51.366Z,11.98
2018-10-19T04:42:20.922Z,11.94
2018-10-19T04:44:50.026Z,11.97
2018-10-19T04:47:19.239Z,11.87
2018-10-19T04:49:48.441Z,11.83
2018-10-19T04:52:18.472Z,11.79
2018-10-19T04:54:47.676Z,11.71
2018-10-19T04:57:16.967Z,11.81
2018-10-19T04:59:46.096Z,11.67
2018-10-19T05:02:16.052Z,11.81
2018-10-19T05:04:45.283Z,11.72
2018-10-19T05:07:15.051Z,11.61
2018-10-19T05:09:44.278Z,11.67
2018-10-19T05:12:14.074Z,11.59
2018-10-19T05:14:43.236Z,11.49
2018-10-19T05:17:12.901Z,11.52
2018-10-19T05:19:42.119Z,11.38
2018-10-19T05:22:11.330Z,11.37
2018-10-19T05:24:40.530Z,11.25
2018-10-19T05:27:09.756Z,11.29
2018-10-19T05:29:39.016Z,11.24
2018-10-19T05:32:08.373Z,11.25
2018-10-19T05:34:37.579Z,11.20
2018-10-19T05:37:06.818Z,11.10
2018-10-19T05:39:36.000Z,11.00
2018-10-19T05:42:05.389Z,10.98
2018-10-19T05:44:34.609Z,10.94
2018-10-19T05:47:04.053Z,10.98
2018-10-19T05:49:33.167Z,10.97
2018-10-19T05:52:02.522Z,11.00
2018-10-19T05:54:31.691Z,11.01
2018-10-19T05:57:00.893Z,11.06
2018-10-19T05:59:30.072Z,11.07
2018-10-19T06:01:59.400Z,11.15
2018-10-19T06:04:28.535Z,11.14
2018-10-19T06:06:57.726Z,11.16
2018-10-19T06:09:26.969Z,11.17
2018-10-19T06:11:56.188Z,11.28
2018-10-19T06:14:25.415Z,11.56
2018-10-19T06:16:54.667Z,11.62
2018-10-19T06:19:23.872Z,11.56
2018-10-19T06:21:53.081Z,11.61
2018-10-19T06:24:22.288Z,11.69
2018-10-19T06:26:51.518Z,11.95
2018-10-19T06:29:20.710Z,12.13
2018-10-19T06:31:49.913Z,12.15
2018-10-19T06:34:19.071Z,12.26
2018-10-19T06:36:48.269Z,12.47
2018-10-19T06:39:17.440Z,12.70
2018-10-19T06:41:46.631Z,12.96
2018-10-19T06:44:15.937Z,13.15
2018-10-19T06:46:45.185Z,13.59
2018-10-19T06:49:14.346Z,13.86
2018-10-19T06:51:43.650Z,14.00
2018-10-19T06:54:12.908Z,14.29
2018-10-19T06:56:42.220Z,14.37
2018-10-19T06:59:11.543Z,14.66
2018-10-19T07:01:40.839Z,14.50
2018-10-19T07:04:10.311Z,14.54
2018-10-19T07:06:39.503Z,14.86
2018-10-19T07:09:09.255Z,15.20
2018-10-19T07:11:38.464Z,14.60
2018-10-19T07:14:07.778Z,15.03
2018-10-19T07:16:37.109Z,15.05
2018-10-19T07:19:06.500Z,15.15
2018-10-19T07:21:35.643Z,15.76
2018-10-19T07:24:05.041Z,15.90
2018-10-19T07:26:34.261Z,16.22
2018-10-19T07:29:03.482Z,16.10
2018-10-19T07:31:32.671Z,16.16
2018-10-19T07:34:01.896Z,16.30
2018-10-19T07:36:31.147Z,16.02
2018-10-19T07:39:00.421Z,16.09
2018-10-19T07:41:29.617Z,15.59
2018-10-19T07:43:58.818Z,15.41
2018-10-19T07:46:31.025Z,15.90
2018-10-19T07:49:00.319Z,15.49
2018-10-19T07:51:29.607Z,15.58
2018-10-19T07:53:58.828Z,15.88
2018-10-19T07:56:28.040Z,15.55
2018-10-19T07:58:57.286Z,15.52
2018-10-19T08:01:26.482Z,15.50
2018-10-19T08:03:55.749Z,15.08
2018-10-19T08:06:24.975Z,14.79
2018-10-19T08:08:54.167Z,15.30
2018-10-19T08:11:23.427Z,15.60
2018-10-19T08:13:52.722Z,15.19
2018-10-19T08:16:21.905Z,15.42
2018-10-19T08:18:51.101Z,14.74
2018-10-19T08:21:20.344Z,15.72
2018-10-19T08:23:49.547Z,15.87
2018-10-19T08:26:18.834Z,15.58
2018-10-19T08:28:47.953Z,16.15
2018-10-19T08:31:17.191Z,16.37
2018-10-19T08:33:46.485Z,15.97
2018-10-19T08:36:15.760Z,15.79
2018-10-19T08:38:45.044Z,15.87
2018-10-19T08:41:14.333Z,16.00
2018-10-19T08:43:43.448Z,14.96
2018-10-19T08:46:18.049Z,14.59
2018-10-19T08:48:47.311Z,14.75
2018-10-19T08:51:16.593Z,14.98
2018-10-19T08:53:45.720Z,15.22
2018-10-19T08:56:14.963Z,15.75
2018-10-19T08:58:44.218Z,15.98
2018-10-19T09:01:13.503Z,16.28
2018-10-19T09:03:42.717Z,15.81
2018-10-19T09:06:12.213Z,16.08
2018-10-19T09:08:41.283Z,15.85
2018-10-19T09:11:10.912Z,15.74
2018-10-19T09:13:40.434Z,15.99
2018-10-19T09:16:10.332Z,15.98
2018-10-19T09:18:39.690Z,16.54
2018-10-19T09:21:09.290Z,16.22
2018-10-19T09:23:38.606Z,15.56
2018-10-19T09:26:07.793Z,16.12
2018-10-19T09:28:36.975Z,16.01
2018-10-19T09:31:06.295Z,16.37
2018-10-19T09:33:35.523Z,16.51
2018-10-19T09:36:04.989Z,16.64
2018-10-19T09:38:34.112Z,16.50
2018-10-19T09:41:03.437Z,16.81
2018-10-19T09:43:32.706Z,16.03
2018-10-19T09:46:01.990Z,16.50
2018-10-19T09:48:31.203Z,16.64
2018-10-19T09:51:00.416Z,16.07
2018-10-19T09:53:29.653Z,15.96
2018-10-19T09:55:58.859Z,16.13
2018-10-19T09:58:28.041Z,16.35
2018-10-19T10:00:59.125Z,16.22
2018-10-19T10:03:29.720Z,16.26
2018-10-19T10:05:59.999Z,16.27
2018-10-19T10:08:30.235Z,15.89
2018-10-19T10:11:00.664Z,16.31
2018-10-19T10:13:30.964Z,16.50
2018-10-19T10:16:00.158Z,16.59
2018-10-19T10:18:29.375Z,16.53
2018-10-19T10:20:58.539Z,15.73
2018-10-19T10:23:27.745Z,15.85
2018-10-19T10:25:57.024Z,15.81
2018-10-19T10:28:26.249Z,16.35
2018-10-19T10:30:55.507Z,16.21
2018-10-19T10:33:24.685Z,16.57
2018-10-19T10:35:53.864Z,16.80
2018-10-19T10:38:23.136Z,16.92
2018-10-19T10:40:52.330Z,16.84
2018-10-19T10:43:21.863Z,16.92
2018-10-19T10:45:51.109Z,16.54
2018-10-19T10:48:20.297Z,16.40
2018-10-19T10:50:49.544Z,16.51
2018-10-19T10:53:19.110Z,16.73
2018-10-19T10:55:48.406Z,16.75
2018-10-19T10:58:17.772Z,16.69
2018-10-19T11:00:46.895Z,16.83
2018-10-19T11:03:16.131Z,17.11
2018-10-19T11:05:45.331Z,16.83
2018-10-19T11:08:14.512Z,17.05
2018-10-19T11:10:43.771Z,17.21
2018-10-19T11:13:12.983Z,17.13
2018-10-19T11:15:42.113Z,17.28
2018-10-19T11:18:11.336Z,17.12
2018-10-19T11:20:40.551Z,17.33
2018-10-19T11:23:10.143Z,17.37
2018-10-19T11:25:39.342Z,17.41
2018-10-19T11:28:08.960Z,17.55
2018-10-19T11:30:38.272Z,17.55
2018-10-19T11:33:07.407Z,17.55
2018-10-19T11:35:36.664Z,17.53
2018-10-19T11:38:06.015Z,17.70
2018-10-19T11:40:37.290Z,17.73
2018-10-19T11:43:06.569Z,17.83
2018-10-19T11:45:36.679Z,17.76
2018-10-19T11:48:05.904Z,17.86
2018-10-19T11:50:35.199Z,18.07
2018-10-19T11:53:04.507Z,17.86
2018-10-19T11:55:33.874Z,18.12
2018-10-19T11:58:03.239Z,17.77
2018-10-19T12:00:32.503Z,17.99
2018-10-19T12:03:01.735Z,18.19
2018-10-19T12:05:31.001Z,18.06
2018-10-19T12:08:00.962Z,17.95
2018-10-19T12:10:30.190Z,17.85
2018-10-19T12:12:59.370Z,17.98
2018-10-19T12:15:28.561Z,18.15
2018-10-19T12:17:57.786Z,18.19
2018-10-19T12:20:27.007Z,18.34
2018-10-19T12:22:56.173Z,18.29
2018-10-19T12:25:25.536Z,18.66
2018-10-19T12:27:54.797Z,18.81
2018-10-19T12:30:24.054Z,18.36
2018-10-19T12:32:53.307Z,18.62
2018-10-19T12:35:22.734Z,18.53
2018-10-19T12:37:51.907Z,18.98
2018-10-19T12:40:21.112Z,18.83
2018-10-19T12:42:50.436Z,18.74
2018-10-19T12:47:31.788Z,18.14
2018-10-19T12:50:01.072Z,18.30
2018-10-19T12:52:30.426Z,18.06
2018-10-19T12:54:59.771Z,18.16
2018-10-19T12:57:29.015Z,18.34
2018-10-19T12:59:58.203Z,18.47
2018-10-19T13:02:27.481Z,18.53
2018-10-19T13:04:56.670Z,18.52
2018-10-19T13:07:25.961Z,18.72
2018-10-19T13:09:55.169Z,18.61
2018-10-19T13:12:24.421Z,18.80
2018-10-19T13:14:53.668Z,18.95
2018-10-19T13:17:22.850Z,18.79
2018-10-19T13:19:52.071Z,18.57
2018-10-19T13:22:21.276Z,18.53
2018-10-19T13:24:50.447Z,18.49
2018-10-19T13:27:19.640Z,18.25
2018-10-19T13:29:48.876Z,18.19
2018-10-19T13:32:18.113Z,18.18
2018-10-19T13:34:47.351Z,18.22
2018-10-19T13:37:16.739Z,18.32
2018-10-19T13:39:45.978Z,18.32
2018-10-19T13:42:15.185Z,18.25
2018-10-19T13:44:44.381Z,18.36
2018-10-19T13:47:13.740Z,18.41
2018-10-19T13:49:42.880Z,18.56
2018-10-19T13:52:14.212Z,18.46
2018-10-19T13:54:45.432Z,18.04
2018-10-19T13:57:15.891Z,18.07
2018-10-19T13:59:45.070Z,18.62
2018-10-19T14:02:14.355Z,18.34
2018-10-19T14:04:43.691Z,18.39
2018-10-19T14:07:12.909Z,18.52
2018-10-19T14:09:43.277Z,18.68
2018-10-19T14:12:12.491Z,18.42
2018-10-19T14:14:41.716Z,18.45
2018-10-19T14:17:11.237Z,18.58
2018-10-19T14:19:40.524Z,18.38
2018-10-19T14:22:09.758Z,18.45
2018-10-19T14:24:39.104Z,18.11
2018-10-19T14:27:08.749Z,17.77
2018-10-19T14:29:38.785Z,17.95
2018-10-19T14:32:08.195Z,17.90
2018-10-19T14:34:37.412Z,17.97
2018-10-19T14:37:06.776Z,17.96
2018-10-19T14:39:36.011Z,18.11
2018-10-19T14:42:05.416Z,18.10
2018-10-19T14:44:34.576Z,18.23
2018-10-19T14:47:03.898Z,18.25
2018-10-19T14:49:33.499Z,18.30
2018-10-19T14:52:03.904Z,18.21
2018-10-19T14:54:33.179Z,18.17
2018-10-19T14:57:02.639Z,18.09
2018-10-19T14:59:31.821Z,18.15
2018-10-19T15:02:01.083Z,18.23
2018-10-19T15:04:30.458Z,18.20
2018-10-19T15:06:59.990Z,17.90
2018-10-19T15:09:29.256Z,17.96
2018-10-19T15:11:58.504Z,17.92
2018-10-19T15:14:27.646Z,17.61
2018-10-19T15:16:56.926Z,17.61
2018-10-19T15:19:26.157Z,17.64
2018-10-19T15:21:55.383Z,17.62
2018-10-19T15:24:24.582Z,17.63
2018-10-19T15:26:54.071Z,17.61
2018-10-19T15:29:23.360Z,17.52
2018-10-19T15:31:52.685Z,17.37
2018-10-19T15:34:21.895Z,17.31
2018-10-19T15:36:54.044Z,17.25
2018-10-19T15:39:23.249Z,17.17
2018-10-19T15:41:52.483Z,17.11
2018-10-19T15:44:21.679Z,17.09
2018-10-19T15:46:51.297Z,17.08
2018-10-19T15:49:20.697Z,16.98
2018-10-19T15:51:49.914Z,16.91
2018-10-19T15:54:19.103Z,16.86
2018-10-19T15:56:48.390Z,16.64
2018-10-19T15:59:17.517Z,16.52
2018-10-19T16:01:46.751Z,16.37
2018-10-19T16:04:16.015Z,16.38
2018-10-19T16:06:45.197Z,16.34
2018-10-19T16:09:15.289Z,16.27
2018-10-19T16:11:44.680Z,16.22
2018-10-19T16:14:13.895Z,16.15
2018-10-19T16:16:43.066Z,16.03
2018-10-19T16:19:12.310Z,15.99
2018-10-19T16:21:41.553Z,15.92
2018-10-19T16:24:11.323Z,15.87
2018-10-19T16:26:40.654Z,15.79
2018-10-19T16:29:10.151Z,15.76
2018-10-19T16:31:39.369Z,15.71
2018-10-19T16:34:08.875Z,15.70
2018-10-19T16:36:38.210Z,15.72
2018-10-19T16:39:09.117Z,15.67
2018-10-19T16:41:45.643Z,15.64
2018-10-19T16:44:16.414Z,15.54
2018-10-19T16:46:45.762Z,15.45
2018-10-19T16:49:14.982Z,15.50
2018-10-19T16:51:44.225Z,15.51
2018-10-19T16:54:13.791Z,15.37
2018-10-19T16:56:42.993Z,15.46
2018-10-19T16:59:12.791Z,15.53
2018-10-19T17:01:42.096Z,15.56
2018-10-19T17:04:11.319Z,15.56
2018-10-19T17:06:40.495Z,15.41
2018-10-19T17:09:11.182Z,15.27
2018-10-19T17:11:40.717Z,15.14
2018-10-19T17:14:10.375Z,15.07
2018-10-19T17:16:39.581Z,15.01
2018-10-19T17:19:09.357Z,15.00
2018-10-19T17:21:38.483Z,14.96
2018-10-19T17:24:07.691Z,14.93
2018-10-19T17:26:37.065Z,15.00
2018-10-19T17:29:06.332Z,14.94
2018-10-19T17:31:35.594Z,14.99
2018-10-19T17:34:04.966Z,15.12
2018-10-19T17:36:34.253Z,15.16
2018-10-19T17:39:03.677Z,15.10
2018-10-19T17:41:33.016Z,15.07
2018-10-19T17:44:02.376Z,15.08
2018-10-19T17:46:31.607Z,14.97
2018-10-19T17:49:00.806Z,14.94
2018-10-19T17:51:30.055Z,15.12
2018-10-19T17:53:59.317Z,15.23
2018-10-19T17:56:28.660Z,15.26
2018-10-19T17:58:57.951Z,15.19
2018-10-19T18:01:27.070Z,14.99
2018-10-19T18:03:57.495Z,14.90
2018-10-19T18:06:28.100Z,14.88
2018-10-19T18:08:57.585Z,14.86
2018-10-19T18:11:26.740Z,14.84
2018-10-19T18:13:56.349Z,14.83
2018-10-19T18:16:25.672Z,14.78
2018-10-19T18:18:54.997Z,14.73
2018-10-19T18:21:24.213Z,14.75
2018-10-19T18:23:53.403Z,14.68
2018-10-19T18:26:22.755Z,14.51
2018-10-19T18:28:51.979Z,14.43
2018-10-19T18:31:21.167Z,14.45
2018-10-19T18:33:50.550Z,14.51
2018-10-19T18:36:19.758Z,14.61
2018-10-19T18:38:49.013Z,14.53
2018-10-19T18:41:18.209Z,14.46
2018-10-19T18:43:47.428Z,14.55
2018-10-19T18:46:16.815Z,14.64
2018-10-19T18:48:46.035Z,14.72
2018-10-19T18:51:17.649Z,14.73
2018-10-19T18:53:46.858Z,14.82
2018-10-19T18:56:16.194Z,14.82
2018-10-19T18:58:45.380Z,14.85
2018-10-19T19:01:15.193Z,14.96
2018-10-19T19:03:44.406Z,15.04
2018-10-19T19:06:13.585Z,14.97
2018-10-19T19:08:42.816Z,15.09
2018-10-19T19:11:12.065Z,14.99
2018-10-19T19:13:49.221Z,14.95
2018-10-19T19:16:23.644Z,15.00
2018-10-19T19:18:52.903Z,14.99
2018-10-19T19:21:22.123Z,14.90
2018-10-19T19:23:56.459Z,15.14
2018-10-19T19:26:26.690Z,14.98
2018-10-19T19:28:56.369Z,15.01
2018-10-19T19:31:25.500Z,15.04
2018-10-19T19:33:59.948Z,15.10
2018-10-19T19:36:29.262Z,15.06
2018-10-19T19:38:58.452Z,15.19
2018-10-19T19:41:32.928Z,15.24
2018-10-19T19:44:02.224Z,15.22
2018-10-19T19:46:31.407Z,15.23
2018-10-19T19:49:06.009Z,15.19
2018-10-19T19:51:35.456Z,15.32
2018-10-19T19:54:04.987Z,15.35
2018-10-19T19:56:34.196Z,15.38
2018-10-19T19:59:03.477Z,15.32
2018-10-19T20:01:32.710Z,15.35
2018-10-19T20:04:03.299Z,15.27
2018-10-19T20:06:32.605Z,15.22
2018-10-19T20:09:01.946Z,15.17
2018-10-19T20:11:31.188Z,15.10
2018-10-19T20:14:00.385Z,15.01
2018-10-19T20:16:29.544Z,14.96
2018-10-19T20:18:58.729Z,14.93
2018-10-19T20:21:27.924Z,14.87
2018-10-19T20:23:57.176Z,14.99
2018-10-19T20:26:26.438Z,14.87
2018-10-19T20:28:55.652Z,14.83
2018-10-19T20:31:24.880Z,14.79
2018-10-19T20:33:54.056Z,14.84
2018-10-19T20:36:23.242Z,15.02
2018-10-19T20:38:52.431Z,14.85
2018-10-19T20:41:21.789Z,14.71
2018-10-19T20:43:50.916Z,14.66
2018-10-19T20:46:20.128Z,14.58
2018-10-19T20:48:49.423Z,14.49
2018-10-19T20:51:18.634Z,14.50
2018-10-19T20:53:47.859Z,14.35
2018-10-19T20:56:17.893Z,14.22
2018-10-19T20:58:47.074Z,14.16
2018-10-19T21:01:16.853Z,14.19
2018-10-19T21:03:46.030Z,14.13
2018-10-19T21:06:15.840Z,13.98
2018-10-19T21:08:45.153Z,13.83
2018-10-19T21:11:14.940Z,13.73
2018-10-19T21:13:44.092Z,13.66
2018-10-19T21:16:13.403Z,13.61
2018-10-19T21:18:42.544Z,13.53
2018-10-19T21:21:11.811Z,13.48
2018-10-19T21:23:41.034Z,13.41
2018-10-19T21:26:10.297Z,13.39
2018-10-19T21:28:39.468Z,13.43
2018-10-19T21:31:08.668Z,13.42
2018-10-19T21:33:37.931Z,13.45
2018-10-19T21:36:07.193Z,13.36
2018-10-19T21:38:36.431Z,13.31
2018-10-19T21:41:05.688Z,13.26
2018-10-19T21:43:34.909Z,13.23
2018-10-19T21:46:04.137Z,13.26
2018-10-19T21:48:33.359Z,13.31
2018-10-19T21:51:02.529Z,13.34
2018-10-19T21:53:31.820Z,13.30
2018-10-19T21:56:01.095Z,13.30
2018-10-19T21:58:30.429Z,13.37
2018-10-19T22:00:59.668Z,13.41
2018-10-19T22:03:28.943Z,13.41
2018-10-19T22:05:58.173Z,13.37
2018-10-19T22:08:27.618Z,13.35
2018-10-19T22:10:56.753Z,13.26
2018-10-19T22:13:25.946Z,13.23
2018-10-19T22:15:55.141Z,13.33
2018-10-19T22:18:24.428Z,13.37
2018-10-19T22:20:53.677Z,13.31
2018-10-19T22:23:23.049Z,13.28
2018-10-19T22:25:52.223Z,13.30
2018-10-19T22:28:21.480Z,13.34
2018-10-19T22:30:50.672Z,13.41
2018-10-19T22:33:19.870Z,13.48
2018-10-19T22:35:49.205Z,13.51
2018-10-19T22:38:18.931Z,13.57
2018-10-19T22:41:14.650Z,13.62
2018-10-19T22:43:44.007Z,13.89
2018-10-19T22:46:13.912Z,13.99
2018-10-19T22:48:43.612Z,14.03
2018-10-19T22:51:12.903Z,13.88
2018-10-19T22:53:42.670Z,13.82
2018-10-19T22:56:11.992Z,13.79
2018-10-19T22:58:41.405Z,13.86
2018-10-19T23:01:10.642Z,13.86
2018-10-19T23:03:39.841Z,13.86
2018-10-19T23:06:09.083Z,13.90
2018-10-19T23:08:38.304Z,13.89
2018-10-19T23:11:07.566Z,13.89
2018-10-19T23:13:36.781Z,13.80
2018-10-19T23:16:06.499Z,13.82
2018-10-19T23:18:35.708Z,13.78
2018-10-19T23:21:05.100Z,13.76
2018-10-19T23:23:34.388Z,13.79
2018-10-19T23:26:03.952Z,13.79
2018-10-19T23:28:33.223Z,13.74
2018-10-19T23:31:02.546Z,13.76
2018-10-19T23:33:31.679Z,13.81
2018-10-19T23:36:01.308Z,13.93
2018-10-19T23:38:30.521Z,13.92
2018-10-19T23:40:59.756Z,13.89
2018-10-19T23:43:28.911Z,13.87
2018-10-19T23:45:58.158Z,13.78
2018-10-19T23:48:27.404Z,13.79
2018-10-19T23:50:56.876Z,13.78
2018-10-19T23:53:26.311Z,13.81
2018-10-19T23:55:55.505Z,13.86
2018-10-19T23:58:24.815Z,13.75
